Time;durP1;ratioP1;P1;durP2;ratioP2;P2;SDS_P1;SDS_P2;PMS_P1;PMS_P2;Temp;Humidity;BMP_temperature;BMP_pressure;BME280_temperature;BME280_humidity;BME280_pressure;Samples;Min_cycle;Max_cycle;Signal;HPM_P1;HPM_P2
2023/01/31 00:00:25;;;;;;;2.67;1.50;;;;;;;;;;4833075;29;20539;-60
2023/01/31 00:02:52;;;;;;;2.23;1.10;;;;;;;;;;4835876;29;20218;-61
2023/01/31 00:05:19;;;;;;;0.63;0.50;;;;;;;;;;4851363;29;20215;-61
2023/01/31 00:07:50;;;;;;;3.60;0.80;;;;;;;;;;4849976;29;20939;-60
2023/01/31 00:10:19;;;;;;;3.50;0.93;;;;;;;;;;4849755;29;20762;-60
2023/01/31 00:12:46;;;;;;;3.03;0.97;;;;;;;;;;4849977;29;20278;-60
2023/01/31 00:15:15;;;;;;;8.13;0.93;;;;;;;;;;4851807;29;20240;-60
2023/01/31 00:17:42;;;;;;;4.70;0.93;;;;;;;;;;4851541;29;20406;-60
2023/01/31 00:20:10;;;;;;;2.07;0.90;;;;;;;;;;4844813;29;20636;-60
2023/01/31 00:22:37;;;;;;;5.17;0.80;;;;;;;;;;4847226;29;20246;-60
2023/01/31 00:25:04;;;;;;;0.67;0.30;;;;;;;;;;4850767;29;20252;-60
2023/01/31 00:27:32;;;;;;;4.17;0.63;;;;;;;;;;4853082;29;20357;-60
2023/01/31 00:30:00;;;;;;;2.83;0.63;;;;;;;;;;4843382;29;20271;-60
2023/01/31 00:32:27;;;;;;;2.33;0.50;;;;;;;;;;4847142;29;20291;-60
2023/01/31 00:34:54;;;;;;;2.33;0.70;;;;;;;;;;4846297;29;20293;-60
2023/01/31 00:37:21;;;;;;;10.73;0.87;;;;;;;;;;4846038;29;20223;-60
2023/01/31 00:39:48;;;;;;;4.17;0.60;;;;;;;;;;4846835;29;20212;-60
2023/01/31 00:42:15;;;;;;;1.77;0.47;;;;;;;;;;4849489;29;20579;-60
2023/01/31 00:44:43;;;;;;;11.77;1.00;;;;;;;;;;4850623;29;20215;-59
2023/01/31 00:47:10;;;;;;;1.67;0.60;;;;;;;;;;4847207;29;20210;-60
2023/01/31 00:49:37;;;;;;;9.60;0.77;;;;;;;;;;4848153;29;20212;-60
2023/01/31 00:52:04;;;;;;;2.63;0.87;;;;;;;;;;4849927;29;20237;-60
2023/01/31 00:54:31;;;;;;;4.67;0.97;;;;;;;;;;4851872;29;20244;-60
2023/01/31 00:56:59;;;;;;;7.83;0.97;;;;;;;;;;4847590;29;20218;-61
2023/01/31 00:59:26;;;;;;;3.20;1.40;;;;;;;;;;4846939;29;20214;-62
2023/01/31 01:01:54;;;;;;;2.33;0.60;;;;;;;;;;4849493;29;20260;-61
2023/01/31 01:04:21;;;;;;;0.67;0.53;;;;;;;;;;4845448;29;20210;-61
2023/01/31 01:06:49;;;;;;;2.37;0.90;;;;;;;;;;4852932;29;20481;-61
2023/01/31 01:09:16;;;;;;;4.67;1.00;;;;;;;;;;4848732;29;20246;-60
2023/01/31 01:11:43;;;;;;;6.47;0.97;;;;;;;;;;4847568;29;20639;-59
2023/01/31 01:14:10;;;;;;;1.03;0.63;;;;;;;;;;4850963;29;20214;-59
2023/01/31 01:16:38;;;;;;;8.53;1.53;;;;;;;;;;4851226;29;20242;-60
2023/01/31 01:19:07;;;;;;;2.73;0.87;;;;;;;;;;4847559;29;20573;-60
2023/01/31 01:21:38;;;;;;;1.07;0.87;;;;;;;;;;4850128;29;20298;-60
2023/01/31 01:24:06;;;;;;;2.03;0.60;;;;;;;;;;4850750;29;20264;-60
2023/01/31 01:26:33;;;;;;;7.20;0.87;;;;;;;;;;4852973;29;20216;-60
2023/01/31 01:29:01;;;;;;;2.47;1.10;;;;;;;;;;4852963;29;20670;-60
2023/01/31 01:31:29;;;;;;;4.73;0.70;;;;;;;;;;4851068;29;20225;-60
2023/01/31 01:33:57;;;;;;;0.60;0.60;;;;;;;;;;4848946;29;20305;-60
2023/01/31 01:36:26;;;;;;;2.73;0.57;;;;;;;;;;4847500;29;20336;-62
2023/01/31 01:38:54;;;;;;;10.60;1.00;;;;;;;;;;4847432;29;20795;-62
2023/01/31 01:41:21;;;;;;;5.57;0.87;;;;;;;;;;4853073;29;20214;-62
2023/01/31 01:43:49;;;;;;;3.30;0.70;;;;;;;;;;4851553;29;20314;-62
2023/01/31 01:46:18;;;;;;;4.73;0.57;;;;;;;;;;4851080;29;20526;-61
2023/01/31 01:48:46;;;;;;;1.50;0.90;;;;;;;;;;4849159;29;20231;-61
2023/01/31 01:51:15;;;;;;;4.57;0.70;;;;;;;;;;4847729;29;20224;-62
2023/01/31 01:53:44;;;;;;;4.17;0.93;;;;;;;;;;4850512;29;20227;-62
2023/01/31 01:56:14;;;;;;;7.30;0.70;;;;;;;;;;4852281;29;20241;-62
2023/01/31 01:58:44;;;;;;;2.10;1.00;;;;;;;;;;4852524;29;20263;-59
2023/01/31 02:01:15;;;;;;;8.90;0.43;;;;;;;;;;4851088;29;20222;-60
2023/01/31 02:03:49;;;;;;;3.53;0.90;;;;;;;;;;4850727;29;20224;-60
2023/01/31 02:06:16;;;;;;;1.00;0.57;;;;;;;;;;4848882;29;20674;-60
2023/01/31 02:08:44;;;;;;;6.60;1.13;;;;;;;;;;4846842;29;20214;-61
2023/01/31 02:11:14;;;;;;;2.13;1.13;;;;;;;;;;4852447;29;20222;-59
2023/01/31 02:13:42;;;;;;;5.90;1.13;;;;;;;;;;4851440;29;20218;-60
2023/01/31 02:16:09;;;;;;;2.00;0.90;;;;;;;;;;4848921;29;20245;-60
2023/01/31 02:18:36;;;;;;;9.17;1.27;;;;;;;;;;4846486;29;20211;-60
2023/01/31 02:21:21;;;;;;;1.40;0.60;;;;;;;;;;4848823;29;20226;-60
2023/01/31 02:24:02;;;;;;;4.70;0.60;;;;;;;;;;4852010;29;20249;-60
2023/01/31 02:26:50;;;;;;;3.13;0.90;;;;;;;;;;4851412;29;20660;-60
2023/01/31 02:29:29;;;;;;;6.93;0.80;;;;;;;;;;4830501;29;20897;-60
2023/01/31 02:32:26;;;;;;;3.93;1.03;;;;;;;;;;4830007;29;20219;-60
2023/01/31 02:35:00;;;;;;;2.70;0.90;;;;;;;;;;4839759;29;20215;-60
2023/01/31 02:37:29;;;;;;;4.40;0.60;;;;;;;;;;4851821;29;20219;-59
2023/01/31 02:40:00;;;;;;;8.03;0.80;;;;;;;;;;4849118;29;20218;-59
2023/01/31 02:42:30;;;;;;;3.60;1.33;;;;;;;;;;4849530;29;20212;-59
2023/01/31 02:45:03;;;;;;;0.60;0.60;;;;;;;;;;4849927;29;20233;-60
2023/01/31 02:47:44;;;;;;;8.90;0.90;;;;;;;;;;4851671;29;20210;-59
2023/01/31 02:50:18;;;;;;;4.73;0.73;;;;;;;;;;4848680;29;20220;-60
2023/01/31 02:52:47;;;;;;;1.90;0.87;;;;;;;;;;4845923;29;20214;-62
2023/01/31 02:58:04;;;;;;;3.07;0.33;;;;;;;;;;4849697;29;20686;-61
2023/01/31 03:00:33;;;;;;;2.73;0.83;;;;;;;;;;4833752;29;20215;-61
2023/01/31 03:03:00;;;;;;;3.37;1.67;;;;;;;;;;4850380;29;20404;-61
2023/01/31 03:05:28;;;;;;;2.30;0.77;;;;;;;;;;4847690;29;20211;-61
2023/01/31 03:07:58;;;;;;;1.80;0.67;;;;;;;;;;4848147;29;20321;-61
2023/01/31 03:10:37;;;;;;;2.20;0.53;;;;;;;;;;4846293;29;20317;-61
2023/01/31 03:13:12;;;;;;;9.87;0.90;;;;;;;;;;4849678;29;20241;-61
2023/01/31 03:18:33;;;;;;;2.40;0.67;;;;;;;;;;4847915;29;20262;-61
2023/01/31 03:21:03;;;;;;;1.43;0.50;;;;;;;;;;4847883;29;20238;-61
2023/01/31 03:23:33;;;;;;;2.10;0.93;;;;;;;;;;4847633;29;20242;-61
2023/01/31 03:26:01;;;;;;;4.00;1.03;;;;;;;;;;4849160;29;20229;-61
2023/01/31 03:28:29;;;;;;;4.83;0.97;;;;;;;;;;4851058;29;20217;-62
2023/01/31 03:31:00;;;;;;;0.57;0.53;;;;;;;;;;4851226;29;20219;-61
2023/01/31 03:33:29;;;;;;;2.97;0.37;;;;;;;;;;4846093;29;20218;-61
2023/01/31 03:35:59;;;;;;;6.13;0.50;;;;;;;;;;4847466;29;20250;-61
2023/01/31 03:38:30;;;;;;;3.67;0.60;;;;;;;;;;4846257;29;20670;-61
2023/01/31 03:40:59;;;;;;;2.13;0.80;;;;;;;;;;4851725;29;20738;-60
2023/01/31 03:43:28;;;;;;;1.00;0.77;;;;;;;;;;4849102;29;20213;-61
2023/01/31 03:45:57;;;;;;;7.63;0.60;;;;;;;;;;4847449;29;20901;-60
2023/01/31 03:48:27;;;;;;;3.93;0.70;;;;;;;;;;4845627;29;20763;-59
2023/01/31 03:50:57;;;;;;;2.63;0.67;;;;;;;;;;4847429;29;20222;-59
2023/01/31 03:53:28;;;;;;;4.43;0.97;;;;;;;;;;4849183;29;20276;-60
2023/01/31 03:55:58;;;;;;;1.03;0.40;;;;;;;;;;4836567;29;20239;-60
2023/01/31 03:58:28;;;;;;;5.20;0.83;;;;;;;;;;4848423;29;20218;-61
2023/01/31 04:00:55;;;;;;;7.80;0.70;;;;;;;;;;4854061;29;20211;-61
2023/01/31 04:03:26;;;;;;;0.50;0.50;;;;;;;;;;4850699;29;20641;-61
2023/01/31 04:05:53;;;;;;;5.23;1.13;;;;;;;;;;4848509;29;20211;-61
2023/01/31 04:08:20;;;;;;;3.70;0.63;;;;;;;;;;4848715;29;20214;-61
2023/01/31 04:10:47;;;;;;;1.50;0.63;;;;;;;;;;4854547;29;20299;-62
2023/01/31 04:13:16;;;;;;;3.70;0.13;;;;;;;;;;4852575;29;20214;-61
2023/01/31 04:15:43;;;;;;;4.70;1.03;;;;;;;;;;4854059;29;20705;-61
2023/01/31 04:18:10;;;;;;;4.17;0.87;;;;;;;;;;4849958;29;20235;-61
2023/01/31 04:20:37;;;;;;;4.53;0.90;;;;;;;;;;4848996;29;20238;-61
2023/01/31 04:23:04;;;;;;;2.97;0.77;;;;;;;;;;4848969;29;20250;-61
2023/01/31 04:25:31;;;;;;;2.07;0.73;;;;;;;;;;4853919;29;20214;-61
2023/01/31 04:27:58;;;;;;;2.10;0.83;;;;;;;;;;4853472;29;20269;-61
2023/01/31 04:30:26;;;;;;;3.73;0.40;;;;;;;;;;4852533;29;20207;-61
2023/01/31 04:32:53;;;;;;;2.17;0.50;;;;;;;;;;4850649;29;20598;-61
2023/01/31 04:35:21;;;;;;;3.90;0.63;;;;;;;;;;4849650;29;20712;-61
2023/01/31 04:37:48;;;;;;;3.17;0.37;;;;;;;;;;4850050;29;20214;-61
2023/01/31 04:40:15;;;;;;;1.80;0.97;;;;;;;;;;4851635;29;20637;-61
2023/01/31 04:42:42;;;;;;;2.87;0.73;;;;;;;;;;4851718;29;20233;-61
2023/01/31 04:45:09;;;;;;;5.27;0.90;;;;;;;;;;4847473;29;20233;-61
2023/01/31 04:47:37;;;;;;;11.93;1.27;;;;;;;;;;4847517;29;20207;-61
2023/01/31 04:50:05;;;;;;;2.57;1.27;;;;;;;;;;4850589;29;20218;-61
2023/01/31 04:52:32;;;;;;;0.80;0.57;;;;;;;;;;4853231;29;20219;-61
2023/01/31 04:54:59;;;;;;;1.73;0.47;;;;;;;;;;4848802;29;20226;-61
2023/01/31 04:57:26;;;;;;;2.67;0.83;;;;;;;;;;4850098;29;20233;-62
2023/01/31 04:59:53;;;;;;;6.43;1.37;;;;;;;;;;4849303;29;20217;-61
2023/01/31 05:02:22;;;;;;;2.40;0.90;;;;;;;;;;4847588;29;20289;-61
2023/01/31 05:04:50;;;;;;;11.27;0.80;;;;;;;;;;4853013;29;20217;-61
2023/01/31 05:07:17;;;;;;;5.60;0.50;;;;;;;;;;4850899;29;20210;-61
2023/01/31 05:09:44;;;;;;;1.20;0.47;;;;;;;;;;4848014;29;20241;-61
2023/01/31 05:12:11;;;;;;;2.03;0.40;;;;;;;;;;4846528;29;20693;-61
2023/01/31 05:14:38;;;;;;;7.33;1.07;;;;;;;;;;4850861;29;20210;-61
2023/01/31 05:17:05;;;;;;;5.97;0.80;;;;;;;;;;4846884;29;20723;-61
2023/01/31 05:19:32;;;;;;;1.30;0.50;;;;;;;;;;4852248;29;20214;-60
2023/01/31 05:22:01;;;;;;;5.93;0.80;;;;;;;;;;4852233;29;20770;-61
2023/01/31 05:24:29;;;;;;;0.57;0.30;;;;;;;;;;4852288;29;20233;-61
2023/01/31 05:26:57;;;;;;;1.60;0.30;;;;;;;;;;4852285;29;20210;-61
2023/01/31 05:29:25;;;;;;;5.17;0.70;;;;;;;;;;4848121;29;20599;-61
2023/01/31 05:31:52;;;;;;;5.50;0.77;;;;;;;;;;4848729;29;20306;-61
2023/01/31 05:34:19;;;;;;;1.23;1.20;;;;;;;;;;4849981;29;20218;-61
2023/01/31 05:36:46;;;;;;;1.60;0.37;;;;;;;;;;4852614;29;20249;-61
2023/01/31 05:39:15;;;;;;;2.93;0.67;;;;;;;;;;4850452;29;20210;-61
2023/01/31 05:41:42;;;;;;;1.13;0.70;;;;;;;;;;4829793;29;20275;-61
2023/01/31 05:44:09;;;;;;;3.83;0.83;;;;;;;;;;4838006;29;20790;-61
2023/01/31 05:46:36;;;;;;;6.97;1.03;;;;;;;;;;4848540;29;20624;-61
2023/01/31 05:49:04;;;;;;;1.67;0.47;;;;;;;;;;4849891;29;20303;-61
2023/01/31 05:51:31;;;;;;;2.90;0.57;;;;;;;;;;4850620;29;20237;-61
2023/01/31 05:53:58;;;;;;;0.73;0.63;;;;;;;;;;4851190;29;20221;-60
2023/01/31 05:56:26;;;;;;;2.60;0.83;;;;;;;;;;4846522;29;20753;-61
2023/01/31 05:58:54;;;;;;;1.03;0.60;;;;;;;;;;4847614;29;20691;-61
2023/01/31 06:01:21;;;;;;;2.33;1.00;;;;;;;;;;4848867;29;20218;-60
2023/01/31 06:03:48;;;;;;;8.70;0.67;;;;;;;;;;4850392;29;20210;-60
2023/01/31 06:06:15;;;;;;;3.47;0.70;;;;;;;;;;4848244;29;20207;-60
2023/01/31 06:08:42;;;;;;;4.67;0.80;;;;;;;;;;4847865;29;20685;-60
2023/01/31 06:11:10;;;;;;;10.50;0.80;;;;;;;;;;4847795;29;20218;-59
2023/01/31 06:13:39;;;;;;;2.57;0.47;;;;;;;;;;4851257;29;20242;-59
2023/01/31 06:16:07;;;;;;;6.93;1.13;;;;;;;;;;4849815;29;20229;-59
2023/01/31 06:18:34;;;;;;;7.10;0.57;;;;;;;;;;4849488;29;20889;-59
2023/01/31 06:21:01;;;;;;;6.70;0.87;;;;;;;;;;4849451;29;20243;-59
2023/01/31 06:23:28;;;;;;;1.50;0.87;;;;;;;;;;4845771;29;20304;-59
2023/01/31 06:25:55;;;;;;;8.23;0.63;;;;;;;;;;4849107;29;20205;-59
2023/01/31 06:28:22;;;;;;;1.50;0.60;;;;;;;;;;4849384;29;20231;-61
2023/01/31 06:30:51;;;;;;;1.13;0.60;;;;;;;;;;4851488;29;20688;-61
2023/01/31 06:33:18;;;;;;;5.57;1.00;;;;;;;;;;4847873;29;20218;-61
2023/01/31 06:35:45;;;;;;;0.97;0.80;;;;;;;;;;4845154;29;20677;-62
2023/01/31 06:38:12;;;;;;;2.63;0.70;;;;;;;;;;4847193;29;20589;-62
2023/01/31 06:40:39;;;;;;;2.77;0.70;;;;;;;;;;4851453;29;20274;-62
2023/01/31 06:43:06;;;;;;;5.03;0.73;;;;;;;;;;4846162;29;20678;-62
2023/01/31 06:45:33;;;;;;;4.77;0.97;;;;;;;;;;4844505;29;20218;-61
2023/01/31 06:48:01;;;;;;;5.97;0.73;;;;;;;;;;4845098;29;20216;-62
2023/01/31 06:50:28;;;;;;;2.77;1.63;;;;;;;;;;4850493;29;20766;-61
2023/01/31 06:52:55;;;;;;;0.33;0.33;;;;;;;;;;4850802;29;20222;-59
2023/01/31 06:55:22;;;;;;;4.57;1.20;;;;;;;;;;4850052;29;20236;-59
2023/01/31 06:57:50;;;;;;;3.67;0.37;;;;;;;;;;4850227;29;20229;-59
2023/01/31 07:00:18;;;;;;;1.00;1.00;;;;;;;;;;4846288;29;20239;-59
2023/01/31 07:02:56;;;;;;;16.23;1.07;;;;;;;;;;4848000;29;20255;-60
2023/01/31 07:05:25;;;;;;;2.93;0.60;;;;;;;;;;4850961;29;20226;-60
2023/01/31 07:07:52;;;;;;;9.93;1.07;;;;;;;;;;4850407;29;20213;-60
2023/01/31 07:10:19;;;;;;;5.37;0.90;;;;;;;;;;4847920;29;20222;-59
2023/01/31 07:12:46;;;;;;;6.20;0.80;;;;;;;;;;4848819;29;20214;-60
2023/01/31 07:15:13;;;;;;;3.17;1.20;;;;;;;;;;4855170;29;20217;-61
2023/01/31 07:17:40;;;;;;;4.13;0.83;;;;;;;;;;4867795;29;20245;-61
2023/01/31 07:20:08;;;;;;;3.77;0.93;;;;;;;;;;4852171;29;20221;-61
2023/01/31 07:22:36;;;;;;;1.10;0.80;;;;;;;;;;4851206;29;20248;-61
2023/01/31 07:25:04;;;;;;;5.77;0.90;;;;;;;;;;4848127;29;20218;-61
2023/01/31 07:27:31;;;;;;;6.23;1.00;;;;;;;;;;4852846;29;20210;-61
2023/01/31 07:29:58;;;;;;;1.50;0.83;;;;;;;;;;4850931;29;20222;-61
2023/01/31 07:32:28;;;;;;;1.47;0.97;;;;;;;;;;4854576;29;20297;-61
2023/01/31 07:34:55;;;;;;;2.83;1.00;;;;;;;;;;4854487;29;20226;-62
2023/01/31 07:37:22;;;;;;;1.30;0.87;;;;;;;;;;4853106;29;20426;-62
2023/01/31 07:39:51;;;;;;;1.70;0.83;;;;;;;;;;4851218;29;20222;-62
2023/01/31 07:42:18;;;;;;;1.07;1.07;;;;;;;;;;4849617;29;20295;-62
2023/01/31 07:44:45;;;;;;;3.43;1.00;;;;;;;;;;4854277;29;20225;-60
2023/01/31 07:47:12;;;;;;;2.73;1.23;;;;;;;;;;4852507;29;20214;-60
2023/01/31 07:49:39;;;;;;;6.03;1.33;;;;;;;;;;4850382;29;20211;-60
2023/01/31 07:52:06;;;;;;;1.17;1.03;;;;;;;;;;4848532;29;20221;-60
2023/01/31 07:54:33;;;;;;;1.10;0.67;;;;;;;;;;4848283;29;20265;-61
2023/01/31 07:57:01;;;;;;;4.60;1.90;;;;;;;;;;4848609;29;20257;-60
2023/01/31 07:59:28;;;;;;;4.93;1.10;;;;;;;;;;4852267;29;20226;-60
2023/01/31 08:04:40;;;;;;;4.63;1.40;;;;;;;;;;4830416;29;20248;-61
2023/01/31 08:07:09;;;;;;;8.47;1.63;;;;;;;;;;4840991;29;20222;-61
2023/01/31 08:09:37;;;;;;;4.23;1.20;;;;;;;;;;4850022;29;20211;-61
2023/01/31 08:12:06;;;;;;;2.87;1.33;;;;;;;;;;4851389;29;20207;-60
2023/01/31 08:14:34;;;;;;;7.20;1.77;;;;;;;;;;4852096;29;20222;-59
2023/01/31 08:17:01;;;;;;;3.43;2.67;;;;;;;;;;4847958;29;20222;-60
2023/01/31 08:19:28;;;;;;;3.80;2.07;;;;;;;;;;4852105;29;20218;-60
2023/01/31 08:21:55;;;;;;;5.50;1.73;;;;;;;;;;4849885;29;20583;-59
2023/01/31 08:24:22;;;;;;;8.70;2.60;;;;;;;;;;4852991;29;20226;-59
2023/01/31 08:26:49;;;;;;;4.27;1.93;;;;;;;;;;4849888;29;20241;-62
2023/01/31 08:29:17;;;;;;;4.87;2.10;;;;;;;;;;4848189;29;20298;-63
2023/01/31 08:31:44;;;;;;;4.20;1.97;;;;;;;;;;4847794;29;20206;-61
2023/01/31 08:34:11;;;;;;;2.50;2.10;;;;;;;;;;4851422;29;20217;-62
2023/01/31 08:36:38;;;;;;;2.47;1.90;;;;;;;;;;4851913;29;20214;-61
2023/01/31 08:39:05;;;;;;;2.33;2.23;;;;;;;;;;4831543;29;20215;-61
2023/01/31 08:41:33;;;;;;;12.17;2.63;;;;;;;;;;4829979;29;20221;-61
2023/01/31 08:44:02;;;;;;;3.83;3.10;;;;;;;;;;4829989;29;20670;-61
2023/01/31 08:46:32;;;;;;;6.53;2.87;;;;;;;;;;4848981;29;20226;-61
2023/01/31 08:48:59;;;;;;;4.33;2.63;;;;;;;;;;4850158;29;20241;-60
2023/01/31 08:51:26;;;;;;;5.57;2.20;;;;;;;;;;4853274;29;20229;-61
2023/01/31 08:53:53;;;;;;;11.67;2.93;;;;;;;;;;4851696;29;20261;-62
2023/01/31 08:56:24;;;;;;;6.00;2.73;;;;;;;;;;4853016;29;20222;-61
2023/01/31 08:58:51;;;;;;;3.17;2.60;;;;;;;;;;4853363;29;20295;-62
2023/01/31 09:01:19;;;;;;;2.57;2.30;;;;;;;;;;4851548;29;20682;-61
2023/01/31 09:03:49;;;;;;;12.27;2.70;;;;;;;;;;4853106;29;20285;-62
2023/01/31 09:06:17;;;;;;;6.77;3.37;;;;;;;;;;4851457;29;20211;-62
2023/01/31 09:08:44;;;;;;;5.67;3.73;;;;;;;;;;4849111;29;20211;-62
2023/01/31 09:11:15;;;;;;;6.37;3.30;;;;;;;;;;4848094;29;20385;-62
2023/01/31 09:13:42;;;;;;;7.10;3.50;;;;;;;;;;4848091;29;20247;-62
2023/01/31 09:16:10;;;;;;;3.10;2.60;;;;;;;;;;4847942;29;20222;-62
2023/01/31 09:18:38;;;;;;;4.30;2.13;;;;;;;;;;4851192;29;20234;-61
2023/01/31 09:21:07;;;;;;;2.97;1.97;;;;;;;;;;4850521;29;20244;-62
2023/01/31 09:23:35;;;;;;;5.00;2.70;;;;;;;;;;4852644;29;20631;-62
2023/01/31 09:26:02;;;;;;;7.00;3.07;;;;;;;;;;4850488;29;20232;-62
2023/01/31 09:28:29;;;;;;;4.47;2.30;;;;;;;;;;4852494;29;20375;-62
2023/01/31 09:30:56;;;;;;;3.57;2.60;;;;;;;;;;4852335;29;20282;-62
2023/01/31 09:33:23;;;;;;;5.73;2.60;;;;;;;;;;4850101;29;20211;-61
2023/01/31 09:35:57;;;;;;;3.43;2.57;;;;;;;;;;4849756;29;20787;-61
2023/01/31 09:38:25;;;;;;;6.43;3.33;;;;;;;;;;4849551;29;20325;-62
2023/01/31 09:40:53;;;;;;;2.87;2.07;;;;;;;;;;4851204;29;20221;-61
2023/01/31 09:43:22;;;;;;;9.03;2.73;;;;;;;;;;4852690;29;20214;-62
2023/01/31 09:45:50;;;;;;;2.73;2.27;;;;;;;;;;4852722;29;20219;-60
2023/01/31 09:48:19;;;;;;;2.20;2.00;;;;;;;;;;4846824;29;20220;-60
2023/01/31 09:50:47;;;;;;;8.63;2.50;;;;;;;;;;4850285;29;20217;-61
2023/01/31 09:53:20;;;;;;;3.43;2.47;;;;;;;;;;4848352;29;20261;-60
2023/01/31 09:55:52;;;;;;;4.57;2.50;;;;;;;;;;4846812;29;20574;-61
2023/01/31 09:58:25;;;;;;;3.93;1.70;;;;;;;;;;4846618;29;20938;-63
2023/01/31 10:00:55;;;;;;;7.07;2.47;;;;;;;;;;4848204;29;20231;-60
2023/01/31 10:03:34;;;;;;;3.73;2.70;;;;;;;;;;4851369;29;20218;-60
2023/01/31 10:06:04;;;;;;;6.40;3.17;;;;;;;;;;4849937;29;20225;-60
2023/01/31 10:08:38;;;;;;;6.23;2.03;;;;;;;;;;4852154;29;20739;-61
2023/01/31 10:11:07;;;;;;;3.00;2.47;;;;;;;;;;4850017;29;20240;-60
2023/01/31 10:13:36;;;;;;;6.00;1.80;;;;;;;;;;4850346;29;20218;-60
2023/01/31 10:16:06;;;;;;;3.07;2.53;;;;;;;;;;4847283;29;20225;-61
2023/01/31 10:18:35;;;;;;;2.80;2.20;;;;;;;;;;4847807;29;20241;-60
2023/01/31 10:21:04;;;;;;;6.40;2.80;;;;;;;;;;4848738;29;20246;-61
2023/01/31 10:23:34;;;;;;;4.60;1.90;;;;;;;;;;4852155;29;20250;-63
2023/01/31 10:26:02;;;;;;;3.37;2.23;;;;;;;;;;4850596;29;20228;-63
2023/01/31 10:28:35;;;;;;;5.07;2.80;;;;;;;;;;4851966;29;20222;-63
2023/01/31 10:31:04;;;;;;;3.57;2.37;;;;;;;;;;4850664;29;20312;-61
2023/01/31 10:33:35;;;;;;;3.87;1.43;;;;;;;;;;4851820;29;20290;-63
2023/01/31 10:36:04;;;;;;;4.00;2.30;;;;;;;;;;4849858;29;20219;-61
2023/01/31 10:38:33;;;;;;;4.33;1.53;;;;;;;;;;4852763;29;20234;-61
2023/01/31 10:41:03;;;;;;;6.20;2.87;;;;;;;;;;4849931;29;20298;-61
2023/01/31 10:43:35;;;;;;;8.90;2.77;;;;;;;;;;4851785;29;20326;-67
2023/01/31 10:46:02;;;;;;;9.63;3.27;;;;;;;;;;4847845;29;20739;-62
2023/01/31 10:48:29;;;;;;;3.03;2.23;;;;;;;;;;4846083;29;20276;-63
2023/01/31 10:51:03;;;;;;;2.47;1.87;;;;;;;;;;4848376;29;20226;-63
2023/01/31 10:53:38;;;;;;;7.10;2.57;;;;;;;;;;4848198;29;20317;-63
2023/01/31 10:56:07;;;;;;;3.57;2.37;;;;;;;;;;4849073;29;20225;-63
2023/01/31 10:58:36;;;;;;;1.83;1.73;;;;;;;;;;4850685;29;20238;-63
2023/01/31 11:01:07;;;;;;;4.40;1.90;;;;;;;;;;4852004;29;20214;-63
2023/01/31 11:03:34;;;;;;;2.97;1.63;;;;;;;;;;4854357;29;20317;-61
2023/01/31 11:06:01;;;;;;;3.67;2.07;;;;;;;;;;4853735;29;20231;-62
2023/01/31 11:08:33;;;;;;;2.30;1.70;;;;;;;;;;4851597;29;20265;-62
2023/01/31 11:11:05;;;;;;;4.60;2.47;;;;;;;;;;4849732;29;20221;-60
2023/01/31 11:13:32;;;;;;;7.57;2.00;;;;;;;;;;4852469;29;20222;-60
2023/01/31 11:16:02;;;;;;;13.77;2.53;;;;;;;;;;4853338;29;20225;-61
2023/01/31 11:18:30;;;;;;;2.20;1.63;;;;;;;;;;4844288;29;20605;-60
2023/01/31 11:20:57;;;;;;;5.30;1.97;;;;;;;;;;4865897;29;20301;-60
2023/01/31 11:23:26;;;;;;;3.07;1.57;;;;;;;;;;4873462;29;20372;-61
2023/01/31 11:25:54;;;;;;;4.90;1.77;;;;;;;;;;4855559;29;20218;-61
2023/01/31 11:28:23;;;;;;;4.63;1.97;;;;;;;;;;4850023;29;20298;-61
2023/01/31 11:30:51;;;;;;;6.43;1.63;;;;;;;;;;4849880;29;20605;-61
2023/01/31 11:33:37;;;;;;;6.10;2.30;;;;;;;;;;4854056;29;20210;-62
2023/01/31 11:36:09;;;;;;;4.47;1.70;;;;;;;;;;4856280;29;20593;-62
2023/01/31 11:38:36;;;;;;;7.60;1.67;;;;;;;;;;4868475;29;20608;-62
2023/01/31 11:41:25;;;;;;;3.00;2.67;;;;;;;;;;4853201;29;20218;-63
2023/01/31 11:44:02;;;;;;;5.47;2.20;;;;;;;;;;4854310;29;20230;-62
2023/01/31 11:46:30;;;;;;;5.13;2.03;;;;;;;;;;4849547;29;20229;-61
2023/01/31 11:48:57;;;;;;;2.10;2.00;;;;;;;;;;4851134;29;20230;-61
2023/01/31 11:51:27;;;;;;;5.40;1.97;;;;;;;;;;4850022;29;20229;-61
2023/01/31 11:53:54;;;;;;;3.60;2.00;;;;;;;;;;4849719;29;20217;-61
2023/01/31 11:56:23;;;;;;;2.57;1.67;;;;;;;;;;4853711;29;20686;-61
2023/01/31 11:58:51;;;;;;;3.07;1.93;;;;;;;;;;4854365;29;20238;-62
2023/01/31 12:01:20;;;;;;;2.33;1.83;;;;;;;;;;4852687;29;20274;-62
2023/01/31 12:03:48;;;;;;;1.60;1.50;;;;;;;;;;4853357;29;20213;-61
2023/01/31 12:06:28;;;;;;;3.03;1.73;;;;;;;;;;4850403;29;20226;-63
2023/01/31 12:08:55;;;;;;;5.37;1.97;;;;;;;;;;4850592;29;20309;-63
2023/01/31 12:11:29;;;;;;;3.60;1.67;;;;;;;;;;4846922;29;20753;-61
2023/01/31 12:14:02;;;;;;;4.03;2.53;;;;;;;;;;4854109;29;20214;-62
2023/01/31 12:16:30;;;;;;;4.93;1.97;;;;;;;;;;4844877;29;20713;-65
2023/01/31 12:19:04;;;;;;;3.27;2.03;;;;;;;;;;4849125;29;20234;-69
2023/01/31 12:21:49;;;;;;;3.90;2.57;;;;;;;;;;4847941;29;20249;-60
2023/01/31 12:24:22;;;;;;;5.43;3.00;;;;;;;;;;4847708;29;20241;-61
2023/01/31 12:26:52;;;;;;;3.40;2.50;;;;;;;;;;4851736;29;20217;-63
2023/01/31 12:29:26;;;;;;;3.47;2.27;;;;;;;;;;4851762;29;20259;-61
2023/01/31 12:32:03;;;;;;;7.73;2.67;;;;;;;;;;4849790;29;20938;-61
2023/01/31 12:34:39;;;;;;;8.13;3.20;;;;;;;;;;4835288;29;20329;-62
2023/01/31 12:37:16;;;;;;;5.67;2.57;;;;;;;;;;4849069;29;20218;-62
2023/01/31 12:39:50;;;;;;;6.27;2.30;;;;;;;;;;4834484;29;20243;-62
2023/01/31 12:42:29;;;;;;;3.20;2.63;;;;;;;;;;4846965;29;20653;-61
2023/01/31 12:45:01;;;;;;;3.33;2.40;;;;;;;;;;4849634;29;20269;-62
2023/01/31 12:47:38;;;;;;;4.03;2.70;;;;;;;;;;4848920;29;20290;-62
2023/01/31 12:50:22;;;;;;;8.00;2.73;;;;;;;;;;4846934;29;20253;-60
2023/01/31 12:52:55;;;;;;;4.43;2.70;;;;;;;;;;4847392;29;20218;-62
2023/01/31 12:55:26;;;;;;;8.73;2.70;;;;;;;;;;4850485;29;20275;-65
2023/01/31 12:57:57;;;;;;;9.00;4.13;;;;;;;;;;4843814;29;20633;-60
2023/01/31 13:00:28;;;;;;;5.10;2.77;;;;;;;;;;4847658;29;20242;-62
2023/01/31 13:03:03;;;;;;;3.10;2.63;;;;;;;;;;4847419;29;20218;-62
2023/01/31 13:05:33;;;;;;;4.33;2.40;;;;;;;;;;4850847;29;20224;-62
2023/01/31 13:08:05;;;;;;;10.43;2.90;;;;;;;;;;4852324;29;20222;-62
2023/01/31 13:10:37;;;;;;;2.43;2.23;;;;;;;;;;4846481;29;20222;-62
2023/01/31 13:13:05;;;;;;;12.73;3.10;;;;;;;;;;4846789;29;20221;-62
2023/01/31 13:15:37;;;;;;;12.93;2.70;;;;;;;;;;4847271;29;20690;-62
2023/01/31 13:18:06;;;;;;;2.40;1.80;;;;;;;;;;4847284;29;20214;-62
2023/01/31 13:20:35;;;;;;;7.13;2.80;;;;;;;;;;4852696;29;20238;-62
2023/01/31 13:23:05;;;;;;;4.93;1.97;;;;;;;;;;4849633;29;20250;-62
2023/01/31 13:25:37;;;;;;;3.47;2.03;;;;;;;;;;4852729;29;20219;-62
2023/01/31 13:28:06;;;;;;;6.00;2.53;;;;;;;;;;4850615;29;20215;-61
2023/01/31 13:30:37;;;;;;;4.07;1.90;;;;;;;;;;4846559;29;20224;-61
2023/01/31 13:33:09;;;;;;;2.23;1.80;;;;;;;;;;4848601;29;20217;-61
2023/01/31 13:35:37;;;;;;;9.40;2.73;;;;;;;;;;4851691;29;20262;-61
2023/01/31 13:38:07;;;;;;;2.50;1.97;;;;;;;;;;4850376;29;20219;-61
2023/01/31 13:40:36;;;;;;;2.70;1.63;;;;;;;;;;4852212;29;20241;-61
2023/01/31 13:43:07;;;;;;;5.17;2.10;;;;;;;;;;4850221;29;20222;-62
2023/01/31 13:45:36;;;;;;;6.50;2.37;;;;;;;;;;4838944;29;20210;-62
2023/01/31 13:48:05;;;;;;;2.50;1.90;;;;;;;;;;4847224;29;20218;-61
2023/01/31 13:50:36;;;;;;;5.07;2.40;;;;;;;;;;4846724;29;20218;-61
2023/01/31 13:53:05;;;;;;;5.50;1.97;;;;;;;;;;4848495;29;20701;-62
2023/01/31 13:55:36;;;;;;;3.60;2.37;;;;;;;;;;4854026;29;20206;-62
2023/01/31 13:58:05;;;;;;;5.20;2.00;;;;;;;;;;4866338;29;20213;-62
2023/01/31 14:00:37;;;;;;;8.17;2.50;;;;;;;;;;4846574;29;20254;-62
2023/01/31 14:03:05;;;;;;;9.50;2.37;;;;;;;;;;4848338;29;20234;-62
2023/01/31 14:05:52;;;;;;;3.27;2.27;;;;;;;;;;4849691;29;20624;-63
2023/01/31 14:08:36;;;;;;;2.43;2.23;;;;;;;;;;4848842;29;20218;-63
2023/01/31 14:11:24;;;;;;;4.13;2.00;;;;;;;;;;4849739;29;20214;-63
2023/01/31 14:14:10;;;;;;;1.97;1.73;;;;;;;;;;4846559;29;20225;-62
2023/01/31 14:16:38;;;;;;;7.90;1.80;;;;;;;;;;4839642;29;20830;-62
2023/01/31 14:19:06;;;;;;;4.33;2.10;;;;;;;;;;4841787;29;20410;-62
2023/01/31 14:21:56;;;;;;;6.93;2.27;;;;;;;;;;4849207;29;20754;-61
2023/01/31 14:24:41;;;;;;;3.03;2.23;;;;;;;;;;4843280;29;20694;-62
2023/01/31 14:27:14;;;;;;;6.47;2.17;;;;;;;;;;4839651;29;20226;-62
2023/01/31 14:29:43;;;;;;;3.27;2.33;;;;;;;;;;4847570;29;20229;-61
2023/01/31 14:32:14;;;;;;;3.90;2.60;;;;;;;;;;4844716;29;21278;-61
2023/01/31 14:34:47;;;;;;;6.13;2.33;;;;;;;;;;4844907;29;20217;-63
2023/01/31 14:37:18;;;;;;;7.80;2.77;;;;;;;;;;4839773;29;20221;-61
2023/01/31 14:40:08;;;;;;;6.47;2.83;;;;;;;;;;4840646;29;20615;-61
2023/01/31 14:42:53;;;;;;;19.77;2.50;;;;;;;;;;4838562;29;20632;-61
2023/01/31 14:45:30;;;;;;;3.20;2.53;;;;;;;;;;4846459;29;20584;-62
2023/01/31 14:48:05;;;;;;;8.57;3.10;;;;;;;;;;4847060;29;20225;-62
2023/01/31 14:50:36;;;;;;;3.57;2.80;;;;;;;;;;4847043;29;20202;-62
2023/01/31 14:53:08;;;;;;;3.50;2.20;;;;;;;;;;4845653;29;20210;-62
2023/01/31 14:55:40;;;;;;;5.50;3.27;;;;;;;;;;4844054;29;20214;-62
2023/01/31 14:58:14;;;;;;;9.70;3.33;;;;;;;;;;4845295;29;20217;-63
2023/01/31 15:00:49;;;;;;;4.57;2.10;;;;;;;;;;4846941;29;20839;-63
2023/01/31 15:03:18;;;;;;;6.87;2.97;;;;;;;;;;4847900;29;20225;-63
2023/01/31 15:05:46;;;;;;;9.27;2.53;;;;;;;;;;4845496;29;20367;-62